Meath Environmental Platform

Observations for Trim Market St

Time AQI Temp °C Hum % Pres Pa CO μg/m³ H₂S μg/m³ NO μg/m³ NO₂ μg/m³ O₃ μg/m³ SO₂ μg/m³ PM1 μg/m³ PM2.5 μg/m³ PM10 μg/m³
Monday 24 August 2026
03:50 2 9 78 38,764 0.62 0 4.59 13.81 15.98 0 4.28 5.53 8.69
03:48 2 9.1 78 39,270 0.62 0 4.47 13.44 17.34 0 2.85 4.11 7.53
03:47 2 9.1 78 39,586 0.61 0 4.31 13.97 17.66 0 4.28 5.54 8.69
03:41 2 9.1 77 41,196 0.6 0 4.78 13.51 15.14 0 2.85 4.13 6.95
03:39 2 9.1 77 41,859 0.58 0 5.88 14.42 15.85 0 3.56 4.14 7.53
03:35 2 9.1 77 43,135 0.59 0 7.62 13.3 17.52 0 2.85 4.15 6.95
03:33 2 9.1 77 43,647 0.59 0 5.55 13.28 18.67 0 4.28 6.06 9.29
03:28 2 9.2 77 44,694 0.57 0 6.36 13.44 18.72 0 4.28 6.07 9.29
03:27 2 9.2 77 44,954 0.58 0 5.63 12.82 18.41 0 3.56 5.12 8.12
03:26 2 9.2 77 45,197 0.57 0 4.96 12.82 18.95 0 2.85 4.64 7.53
03:25 2 9.2 77 45,455 0.57 0 4.58 13.27 18.29 0 3.56 4.65 7.53
03:24 2 9.2 77 45,696 0.57 0 4.16 13.11 18.79 0 2.14 3.22 5.77
03:23 2 9.2 77 45,901 0.58 0 4.38 12.65 18.49 0 2.85 4.17 6.94
03:22 2 9.2 76 46,111 0.58 0 4.66 12.49 17.23 0 3.56 4.65 7.53
03:21 2 9.2 76 46,324 0.57 0 4.37 12.78 16.79 0 3.56 5.13 8.12
03:20 2 9.2 76 46,487 0.57 0 4.66 13.25 18.11 0 3.56 4.65 8.12
03:19 2 9.2 76 46,663 0.57 0 4.83 12.62 16.67 0 2.85 3.71 6.94
03:18 2 9.3 76 46,802 0.57 0 4.66 12.68 17.36 0 2.85 3.71 6.35
03:17 2 9.3 76 46,931 0.56 0 4.19 12.83 17.52 0 2.14 3.71 6.35
03:16 2 9.3 76 47,045 0.55 0 4.74 13.14 15.89 0 3.56 4.18 6.94